WetterOnline ( https://www.wetteronline.at )

Wetter aktuell Diepholz

Aktuelles Wetter: Diepholz (40m)

6-stündlich | Neueste Meldungen
Ortszeit Temperatur Wetter
So, 15.12. 13:00 8.4° C fast wolkenlos
So, 15.12. 7:00 6.8° C leichter Regen
So, 15.12. 1:00 1.4° C wolkenlos
Sa, 14.12. 19:00 1.9° C Regen
Sa, 14.12. 13:00 5.6° C wolkig
Sa, 14.12. 7:00 4.6° C leichter Regen
Sa, 14.12. 1:00 5.1° C Sprühregen
Fr, 13.12. 19:00 2.6° C leichter Regen
Ortszeit Temperatur Wetter
So, 15.12. 13:00 8.4° C fast wolkenlos
So, 15.12. 12:50 8.4° C fast wolkenlos
So, 15.12. 12:40 8.3° C leicht bewölkt
So, 15.12. 12:30 8.3° C wolkenlos
So, 15.12. 12:20 8.3° C wolkenlos
So, 15.12. 12:10 8.3° C wolkenlos
So, 15.12. 12:00 8.3° C fast wolkenlos
So, 15.12. 11:30 8.2° C leicht bewölkt
So, 15.12. 11:00 8.3° C leicht bewölkt
So, 15.12. 10:30 8.3° C leicht bewölkt
So, 15.12. 10:00 8.2° C leicht bewölkt
Ortszeit Relative Feuchte Sichtweite
So, 15.12. 13:00 61% 55 km
So, 15.12. 7:00 93% 26 km
So, 15.12. 1:00 88% 24 km
Sa, 14.12. 19:00 96% 5.0 km
Sa, 14.12. 13:00 86% 40 km
Sa, 14.12. 7:00 90% 21 km
Sa, 14.12. 1:00 95% 7 km
Fr, 13.12. 19:00 97% 6 km
Ortszeit Relative Feuchte Sichtweite
So, 15.12. 13:00 61% 55 km
So, 15.12. 12:50 61% -
So, 15.12. 12:40 62% -
So, 15.12. 12:30 64% 40 km
So, 15.12. 12:20 64% -
So, 15.12. 12:10 64% -
So, 15.12. 12:00 66% 55 km
So, 15.12. 11:30 67% 45 km
So, 15.12. 11:00 69% 45 km
So, 15.12. 10:30 71% 50 km
So, 15.12. 10:00 76% 60 km
Ortszeit Niederschlagsmenge Niederschlagsart
So, 15.12. 13:00 0.1 l/m2 in 6 Std. Regen
So, 15.12. 7:00 3 l/m2 in 12 Std. Regen
So, 15.12. 1:00 2 l/m2 in 6 Std. Schnee, Regen
Sa, 14.12. 19:00 8 l/m2 in 12 Std. Schnee, Regen
Sa, 14.12. 13:00 2 l/m2 in 6 Std. Regen
Sa, 14.12. 7:00 0.7 l/m2 in 12 Std. Regen
Sa, 14.12. 1:00 0.7 l/m2 in 6 Std. Regen
Fr, 13.12. 19:00 0.6 l/m2 in 12 Std. Regen
Ortszeit Niederschlagsmenge Niederschlagsart
So, 15.12. 13:00 0.0 l/m2 in 1 Std. Regen
So, 15.12. 12:50 keine Meldung -
So, 15.12. 12:40 keine Meldung -
So, 15.12. 12:30 0.0 l/m2 in 1 Std. -
So, 15.12. 12:20 keine Meldung -
So, 15.12. 12:10 keine Meldung -
So, 15.12. 12:00 0.0 l/m2 in 1 Std. -
So, 15.12. 11:30 0.0 l/m2 in 1 Std. -
So, 15.12. 11:00 0.0 l/m2 in 1 Std. -
So, 15.12. 10:30 0.0 l/m2 in 1 Std. -
So, 15.12. 10:00 0.0 l/m2 in 1 Std. Regen
Ortszeit Stärke Spitze Richtung
km/h Bft. km/h Grad Sektor
So, 15.12. 13:00 41 6 65 250° W
So, 15.12. 7:00 22 4 43 200° S
So, 15.12. 1:00 14 3 43 180° S
Sa, 14.12. 19:00 18 3 65 300° NW
Sa, 14.12. 13:00 28 4 65 250° W
Sa, 14.12. 7:00 20 4 33 220° SW
Sa, 14.12. 1:00 20 4 28 230° SW
Fr, 13.12. 19:00 2 1 20 270° W
Ortszeit Stärke Spitze Richtung
km/h Bft. km/h Grad Sektor
So, 15.12. 13:00 41 6 65 250° W
So, 15.12. 12:50 41 6 - 250° W
So, 15.12. 12:40 43 6 - 240° SW
So, 15.12. 12:30 39 6 61 250° W
So, 15.12. 12:20 39 6 - 250° W
So, 15.12. 12:10 43 6 - 240° SW
So, 15.12. 12:00 43 6 65 240° SW
So, 15.12. 11:30 43 6 65 250° W
So, 15.12. 11:00 43 6 65 240° SW
So, 15.12. 10:30 41 6 63 250° W
So, 15.12. 10:00 37 5 57 240° SW
Ortszeit Untergrenze Bedeckung Gattung
total tief tief mittel hoch
So, 15.12. 13:00 1170 m 1/8 1/8 - - -
So, 15.12. 7:00 570 m 7/8 7/8 - - -
So, 15.12. 1:00 - 0/8 0/8 - - -
Sa, 14.12. 19:00 180 m 7/8 7/8 - - -
Sa, 14.12. 13:00 960 m 7/8 4/8 - - -
Sa, 14.12. 7:00 540 m 8/8 8/8 - - -
Sa, 14.12. 1:00 330 m 7/8 7/8 - - -
Fr, 13.12. 19:00 360 m 8/8 8/8 - - -
Ortszeit Bedeckungsgrad in Achtel und Wolkenuntergrenze
So, 15.12. 13:00 1(1170m)
So, 15.12. 12:50 1(1170m)
So, 15.12. 12:40 2(1200m)
So, 15.12. 12:30 keine Wolken
So, 15.12. 12:20 keine Wolken
So, 15.12. 12:10 keine Wolken
So, 15.12. 12:00 1(1110m)
So, 15.12. 11:30 2(1110m)
So, 15.12. 11:00 4(1050m)
So, 15.12. 10:30 4(1080m)
So, 15.12. 10:00 1(810m) 2(1050m)
Ortszeit Luftdruck NN (hPa) Tendenz (hPa in 3 Std.)
So, 15.12. 13:00 998 + 3,8
So, 15.12. 7:00 991 - 3,5
So, 15.12. 1:00 997 + 1,3
Sa, 14.12. 19:00 992 + 1,9
Sa, 14.12. 13:00 987 + 2,8
Sa, 14.12. 7:00 982 - 0,6
Sa, 14.12. 1:00 983 - 0,1
Fr, 13.12. 19:00 981 + 2,3
Ortszeit Luftdruck NN (hPa) Tendenz (hPa in 3 Std.)
So, 15.12. 13:00 998 + 3,8
So, 15.12. 12:50 998 keine Meldung
So, 15.12. 12:40 997 keine Meldung
So, 15.12. 12:30 997 + 4,1
So, 15.12. 12:20 997 keine Meldung
So, 15.12. 12:10 997 keine Meldung
So, 15.12. 12:00 996 + 4,2
So, 15.12. 11:30 996 + 4,7
So, 15.12. 11:00 995 + 4,6
So, 15.12. 10:30 995 + 4,4
So, 15.12. 10:00 994 + 3,2
Ortszeit Schneehöhe (cm)
So, 15.12. 13:00 0
So, 15.12. 7:00 0
So, 15.12. 1:00 0
Sa, 14.12. 19:00 0
Sa, 14.12. 13:00 0
Sa, 14.12. 7:00 0
Sa, 14.12. 1:00 0
Fr, 13.12. 19:00 0
Ortszeit Schneehöhe (cm)
So, 15.12. 13:00 0
So, 15.12. 12:50 0
So, 15.12. 12:40 0
So, 15.12. 12:30 0
So, 15.12. 12:20 0
So, 15.12. 12:10 0
So, 15.12. 12:00 0
So, 15.12. 11:30 0
So, 15.12. 11:00 0
So, 15.12. 10:30 0
So, 15.12. 10:00 0
Link zu dieser Seite / Seite empfehlen

Das Wetter in ...